createdAt,value
2018-01-19T00:00:57.820Z,1.53
2018-01-19T00:01:59.084Z,1.30
2018-01-19T00:03:01.368Z,1.43
2018-01-19T00:04:02.664Z,1.83
2018-01-19T00:05:03.914Z,1.57
2018-01-19T00:06:05.908Z,1.77
2018-01-19T00:07:07.197Z,2.43
2018-01-19T00:08:08.712Z,2.03
2018-01-19T00:09:10.712Z,1.53
2018-01-19T00:10:12.705Z,2.67
2018-01-19T00:11:13.952Z,3.87
2018-01-19T00:12:15.212Z,2.03
2018-01-19T00:13:16.741Z,1.33
2018-01-19T00:14:17.985Z,2.50
2018-01-19T00:15:19.260Z,2.00
2018-01-19T00:16:20.524Z,1.30
2018-01-19T00:17:21.798Z,1.80
2018-01-19T00:18:23.080Z,2.77
2018-01-19T00:19:24.336Z,2.40
2018-01-19T00:20:25.585Z,1.77
2018-01-19T00:21:26.828Z,2.10
2018-01-19T00:22:40.268Z,3.20
2018-01-19T00:23:42.532Z,1.40
2018-01-19T00:24:44.512Z,2.57
2018-01-19T00:25:45.768Z,1.80
2018-01-19T00:26:47.024Z,2.43
2018-01-19T00:27:49.016Z,1.57
2018-01-19T00:28:51.304Z,2.17
2018-01-19T00:29:52.569Z,1.63
2018-01-19T00:30:53.812Z,2.60
2018-01-19T00:31:55.100Z,3.47
2018-01-19T00:32:56.341Z,1.20
2018-01-19T00:33:57.608Z,1.30
2018-01-19T00:34:58.878Z,2.20
2018-01-19T00:36:00.885Z,1.27
2018-01-19T00:37:02.148Z,1.30
2018-01-19T00:38:03.468Z,1.40
2018-01-19T00:39:05.500Z,1.60
2018-01-19T00:40:06.785Z,1.40
2018-01-19T00:41:08.038Z,1.13
2018-01-19T00:42:10.022Z,1.10
2018-01-19T00:43:11.290Z,1.00
2018-01-19T00:44:12.563Z,0.90
2018-01-19T00:45:14.558Z,0.87
2018-01-19T00:46:15.809Z,0.73
2018-01-19T00:47:17.066Z,0.80
2018-01-19T00:48:18.320Z,0.90
2018-01-19T00:49:20.614Z,0.97
2018-01-19T00:50:21.876Z,0.80
2018-01-19T00:51:23.130Z,0.80
2018-01-19T00:52:24.388Z,0.70
2018-01-19T00:53:26.389Z,0.80
2018-01-19T00:54:27.933Z,0.90
2018-01-19T00:55:29.209Z,1.17
2018-01-19T00:56:31.218Z,0.80
2018-01-19T00:57:32.476Z,0.80
2018-01-19T00:58:33.724Z,0.80
2018-01-19T00:59:35.240Z,0.73
2018-01-19T01:00:36.537Z,0.77
2018-01-19T01:01:37.786Z,0.80
2018-01-19T01:02:39.041Z,1.07
2018-01-19T01:03:40.302Z,0.60
2018-01-19T01:04:41.857Z,0.93
2018-01-19T01:05:43.845Z,0.90
2018-01-19T01:06:45.116Z,0.60
2018-01-19T01:07:46.372Z,0.70
2018-01-19T01:08:47.632Z,0.83
2018-01-19T01:09:49.943Z,0.60
2018-01-19T01:10:51.202Z,0.70
2018-01-19T01:11:52.460Z,0.63
2018-01-19T01:12:54.498Z,0.67
2018-01-19T01:13:55.752Z,0.70
2018-01-19T01:14:58.041Z,0.60
2018-01-19T01:15:59.316Z,0.70
2018-01-19T01:17:00.575Z,1.17
2018-01-19T01:18:02.581Z,0.80
2018-01-19T01:19:03.833Z,0.70
2018-01-19T01:20:05.121Z,0.80
2018-01-19T01:21:06.381Z,0.60
2018-01-19T01:22:07.638Z,0.60
2018-01-19T01:23:08.885Z,0.80
2018-01-19T01:24:10.153Z,0.77
2018-01-19T01:25:11.641Z,0.60
2018-01-19T01:26:12.896Z,0.80
2018-01-19T01:27:14.153Z,0.70
2018-01-19T01:28:16.148Z,0.80
2018-01-19T01:29:17.413Z,0.80
2018-01-19T01:30:19.081Z,0.70
2018-01-19T01:31:21.085Z,0.50
2018-01-19T01:32:22.345Z,0.63
2018-01-19T01:33:23.608Z,0.70
2018-01-19T01:34:25.602Z,0.60
2018-01-19T01:35:27.133Z,0.60
2018-01-19T01:36:28.389Z,0.60
2018-01-19T01:37:30.393Z,0.60
2018-01-19T01:38:32.424Z,0.60
2018-01-19T01:39:33.672Z,0.60
2018-01-19T01:40:35.709Z,0.50
2018-01-19T01:41:36.970Z,0.50
2018-01-19T01:42:38.973Z,0.50
2018-01-19T01:43:40.221Z,0.50
2018-01-19T01:44:41.475Z,1.00
2018-01-19T01:45:42.765Z,0.50
2018-01-19T01:46:44.030Z,0.70
2018-01-19T01:47:45.279Z,0.60
2018-01-19T01:48:58.825Z,0.60
2018-01-19T01:50:00.820Z,0.60
2018-01-19T01:51:02.418Z,0.60
2018-01-19T01:52:04.417Z,0.60
2018-01-19T01:53:05.698Z,0.60
2018-01-19T01:54:07.705Z,0.70
2018-01-19T01:55:08.949Z,0.60
2018-01-19T01:56:10.493Z,0.57
2018-01-19T01:57:11.745Z,0.60
2018-01-19T01:58:13.013Z,0.60
2018-01-19T01:59:15.006Z,0.60
2018-01-19T02:00:16.261Z,0.60
2018-01-19T02:01:17.533Z,0.50
2018-01-19T02:02:19.533Z,0.60
2018-01-19T02:03:20.820Z,0.50
2018-01-19T02:04:22.821Z,0.50
2018-01-19T02:05:24.088Z,0.77
2018-01-19T02:06:25.352Z,0.60
2018-01-19T02:07:27.356Z,0.60
2018-01-19T02:08:28.612Z,0.60
2018-01-19T02:09:29.886Z,0.60
2018-01-19T02:10:31.165Z,0.70
2018-01-19T02:11:32.463Z,0.50
2018-01-19T02:12:33.729Z,0.60
2018-01-19T02:13:34.988Z,0.57
2018-01-19T02:14:36.241Z,0.53
2018-01-19T02:15:38.233Z,0.50
2018-01-19T02:16:39.845Z,0.60
2018-01-19T02:17:41.843Z,0.60
2018-01-19T02:18:43.105Z,0.63
2018-01-19T02:19:44.380Z,0.50
2018-01-19T02:20:46.409Z,0.53
2018-01-19T02:21:47.945Z,0.50
2018-01-19T02:22:49.213Z,0.50
2018-01-19T02:23:51.213Z,0.50
2018-01-19T02:24:52.477Z,0.50
2018-01-19T02:25:53.716Z,0.50
2018-01-19T02:26:56.009Z,0.40
2018-01-19T02:27:57.251Z,0.50
2018-01-19T02:28:58.530Z,0.43
2018-01-19T02:29:59.799Z,0.50
2018-01-19T02:31:01.055Z,0.60
2018-01-19T02:32:02.663Z,0.50
2018-01-19T02:33:04.669Z,0.40
2018-01-19T02:34:05.917Z,0.60
2018-01-19T02:35:07.903Z,0.70
2018-01-19T02:36:09.903Z,0.63
2018-01-19T02:37:11.437Z,0.60
2018-01-19T02:38:12.733Z,0.60
2018-01-19T02:39:14.769Z,0.50
2018-01-19T02:40:16.031Z,0.43
2018-01-19T02:41:18.018Z,0.60
2018-01-19T02:42:19.621Z,0.60
2018-01-19T02:43:21.639Z,0.67
2018-01-19T02:44:22.901Z,0.75
2018-01-19T02:45:24.165Z,0.57
2018-01-19T02:46:26.173Z,0.50
2018-01-19T02:47:27.471Z,0.70
2018-01-19T02:48:28.736Z,0.60
2018-01-19T02:49:30.009Z,0.60
2018-01-19T02:50:32.021Z,0.60
2018-01-19T02:51:33.301Z,0.53
2018-01-19T02:52:35.573Z,0.60
2018-01-19T02:53:36.820Z,0.60
2018-01-19T02:54:38.127Z,0.60
2018-01-19T02:55:40.141Z,0.70
2018-01-19T02:56:41.405Z,0.60
2018-01-19T02:57:42.931Z,0.50
2018-01-19T02:58:44.187Z,0.50
2018-01-19T02:59:45.445Z,0.50
2018-01-19T03:00:46.727Z,0.53
2018-01-19T03:01:47.998Z,0.40
2018-01-19T03:02:50.272Z,0.60
2018-01-19T03:03:51.552Z,0.50
2018-01-19T03:04:52.787Z,0.60
2018-01-19T03:05:54.053Z,0.80
2018-01-19T03:06:55.317Z,0.97
2018-01-19T03:07:57.591Z,0.70
2018-01-19T03:08:58.843Z,0.60
2018-01-19T03:10:00.105Z,0.50
2018-01-19T03:11:01.369Z,0.77
2018-01-19T03:12:03.365Z,0.50
2018-01-19T03:13:04.963Z,0.60
2018-01-19T03:14:06.981Z,0.50
2018-01-19T03:15:08.258Z,0.53
2018-01-19T03:16:10.277Z,0.53
2018-01-19T03:17:11.537Z,0.53
2018-01-19T03:18:13.897Z,0.57
2018-01-19T03:19:15.893Z,0.60
2018-01-19T03:20:17.160Z,0.57
2018-01-19T03:21:18.427Z,0.60
2018-01-19T03:22:20.418Z,0.60
2018-01-19T03:23:22.023Z,0.40
2018-01-19T03:24:24.037Z,0.43
2018-01-19T03:25:25.301Z,0.50
2018-01-19T03:26:26.556Z,0.40
2018-01-19T03:27:28.549Z,0.57
2018-01-19T03:28:30.085Z,0.50
2018-01-19T03:29:31.490Z,0.60
2018-01-19T03:30:33.560Z,0.50
2018-01-19T03:31:34.783Z,0.47
2018-01-19T03:32:36.773Z,0.40
2018-01-19T03:33:38.317Z,0.50
2018-01-19T03:34:39.583Z,0.50
2018-01-19T03:35:40.849Z,0.50
2018-01-19T03:36:42.104Z,0.60
2018-01-19T03:37:43.365Z,0.60
2018-01-19T03:38:44.897Z,0.57
2018-01-19T03:39:46.185Z,0.57
2018-01-19T03:40:48.175Z,0.40
2018-01-19T03:41:49.425Z,0.60
2018-01-19T03:42:50.693Z,0.50
2018-01-19T03:43:51.971Z,0.50
2018-01-19T03:44:53.243Z,0.50
2018-01-19T03:45:54.497Z,0.57
2018-01-19T03:46:55.757Z,0.70
2018-01-19T03:47:57.760Z,0.60
2018-01-19T03:48:59.349Z,0.47
2018-01-19T03:50:01.331Z,0.47
2018-01-19T03:51:02.642Z,0.57
2018-01-19T03:52:03.875Z,0.50
2018-01-19T03:53:05.892Z,0.50
2018-01-19T03:54:07.463Z,0.60
2018-01-19T03:55:09.477Z,0.40
2018-01-19T03:56:10.737Z,0.50
2018-01-19T03:57:11.993Z,0.60
2018-01-19T03:58:13.975Z,0.50
2018-01-19T03:59:15.517Z,0.60
2018-01-19T04:00:16.773Z,0.50
2018-01-19T04:01:18.035Z,0.60
2018-01-19T04:02:19.297Z,0.40
2018-01-19T04:03:21.291Z,0.50
2018-01-19T04:04:22.826Z,0.47
2018-01-19T04:05:24.085Z,0.50
2018-01-19T04:06:25.321Z,0.60
2018-01-19T04:07:26.579Z,0.50
2018-01-19T04:08:27.831Z,0.50
2018-01-19T04:09:30.185Z,0.47
2018-01-19T04:10:32.177Z,0.50
2018-01-19T04:11:33.425Z,0.60
2018-01-19T04:12:34.669Z,0.40
2018-01-19T04:13:35.917Z,0.60
2018-01-19T04:14:37.425Z,0.60
2018-01-19T04:15:38.685Z,0.50
2018-01-19T04:16:39.927Z,0.50
2018-01-19T04:17:41.185Z,0.50
2018-01-19T04:18:42.428Z,0.50
2018-01-19T04:19:44.701Z,1.27
2018-01-19T04:20:46.740Z,0.50
2018-01-19T04:21:48.060Z,0.50
2018-01-19T04:23:57.293Z,0.40
2018-01-19T04:24:58.841Z,0.40
2018-01-19T04:26:00.858Z,0.40
2018-01-19T04:27:02.157Z,0.93
2018-01-19T04:28:03.408Z,0.50
2018-01-19T04:29:04.677Z,0.50
2018-01-19T04:30:06.251Z,0.40
2018-01-19T04:31:08.255Z,0.47
2018-01-19T04:32:09.497Z,0.40
2018-01-19T04:33:10.737Z,0.40
2018-01-19T04:34:11.997Z,0.70
2018-01-19T04:35:13.325Z,0.50
2018-01-19T04:36:14.593Z,0.43
2018-01-19T04:37:16.605Z,0.50
2018-01-19T04:38:17.881Z,0.40
2018-01-19T04:39:19.914Z,0.50
2018-01-19T04:40:21.534Z,0.63
2018-01-19T04:41:22.807Z,0.50
2018-01-19T04:42:24.825Z,0.50
2018-01-19T04:43:26.858Z,0.50
2018-01-19T04:44:28.121Z,0.50
2018-01-19T04:45:29.657Z,0.70
2018-01-19T04:46:30.923Z,0.90
2018-01-19T04:47:32.920Z,0.53
2018-01-19T04:48:34.185Z,0.57
2018-01-19T04:49:36.187Z,0.67
2018-01-19T04:50:37.444Z,0.60
2018-01-19T04:51:38.689Z,0.70
2018-01-19T04:52:39.941Z,0.60
2018-01-19T04:53:41.225Z,1.00
2018-01-19T04:54:42.493Z,1.37
2018-01-19T04:55:44.089Z,2.50
2018-01-19T04:56:46.084Z,0.87
2018-01-19T04:57:47.411Z,0.87
2018-01-19T04:58:48.672Z,1.33
2018-01-19T04:59:49.921Z,0.90
2018-01-19T05:00:51.489Z,0.90
2018-01-19T05:01:53.492Z,0.77
2018-01-19T05:02:54.761Z,1.23
2018-01-19T05:03:56.017Z,0.73
2018-01-19T05:04:58.017Z,1.20
2018-01-19T05:05:59.298Z,1.27
2018-01-19T05:07:01.297Z,0.50
2018-01-19T05:08:02.533Z,0.77
2018-01-19T05:09:03.827Z,0.60
2018-01-19T05:10:05.825Z,0.70
2018-01-19T05:11:07.113Z,0.93
2018-01-19T05:12:09.157Z,1.03
2018-01-19T05:13:10.413Z,0.70
2018-01-19T05:14:12.417Z,1.57
2018-01-19T05:15:13.685Z,1.20
2018-01-19T05:16:15.219Z,0.87
2018-01-19T05:17:16.477Z,1.13
2018-01-19T05:18:18.480Z,1.53
2018-01-19T05:19:19.743Z,0.83
2018-01-19T05:20:20.989Z,0.83
2018-01-19T05:21:22.537Z,0.90
2018-01-19T05:22:24.519Z,1.07
2018-01-19T05:23:25.768Z,0.80
2018-01-19T05:24:27.023Z,1.20
2018-01-19T05:25:28.295Z,2.90
2018-01-19T05:26:30.301Z,3.00
2018-01-19T05:27:31.547Z,3.50
2018-01-19T05:28:32.805Z,2.60
2018-01-19T05:29:34.057Z,2.17
2018-01-19T05:30:36.063Z,1.87
2018-01-19T05:31:37.382Z,1.57
2018-01-19T05:32:38.644Z,1.47
2018-01-19T05:33:39.919Z,0.87
2018-01-19T05:34:41.909Z,1.30
2018-01-19T05:35:43.173Z,2.47
2018-01-19T05:36:44.729Z,1.47
2018-01-19T05:37:45.993Z,1.87
2018-01-19T05:38:48.023Z,1.20
2018-01-19T05:39:49.267Z,0.93
2018-01-19T05:40:51.299Z,1.00
2018-01-19T05:41:52.836Z,0.90
2018-01-19T05:42:54.087Z,1.10
2018-01-19T05:43:55.338Z,1.33
2018-01-19T05:44:57.322Z,1.13
2018-01-19T05:45:58.568Z,0.90
2018-01-19T05:46:59.837Z,1.47
2018-01-19T05:48:01.097Z,2.10
2018-01-19T05:49:03.095Z,1.37
2018-01-19T05:50:04.348Z,1.63
2018-01-19T05:51:05.621Z,1.37
2018-01-19T05:52:07.603Z,1.87
2018-01-19T05:53:08.855Z,3.00
2018-01-19T05:54:10.109Z,1.30
2018-01-19T05:55:11.358Z,1.60
2018-01-19T05:56:12.618Z,2.93
2018-01-19T05:57:14.635Z,1.57
2018-01-19T05:58:15.901Z,1.83
2018-01-19T05:59:17.917Z,2.00
2018-01-19T06:00:19.169Z,2.40
2018-01-19T06:01:20.438Z,2.10
2018-01-19T06:02:22.443Z,1.40
2018-01-19T06:03:23.693Z,1.10
2018-01-19T06:04:24.947Z,2.53
2018-01-19T06:05:26.996Z,1.50
2018-01-19T06:06:28.232Z,2.03
2018-01-19T06:07:29.778Z,1.77
2018-01-19T06:08:31.765Z,1.60
2018-01-19T06:09:33.011Z,1.40
2018-01-19T06:10:34.293Z,1.50
2018-01-19T06:11:35.548Z,1.50
2018-01-19T06:12:37.809Z,1.53
2018-01-19T06:13:39.798Z,1.20
2018-01-19T06:14:41.058Z,1.23
2018-01-19T06:15:43.049Z,1.00
2018-01-19T06:16:45.049Z,1.00
2018-01-19T06:17:46.571Z,1.10
2018-01-19T06:18:47.827Z,1.10
2018-01-19T06:19:49.081Z,1.23
2018-01-19T06:20:50.317Z,0.90
2018-01-19T06:21:51.564Z,1.10
2018-01-19T06:22:53.085Z,1.00
2018-01-19T06:23:54.337Z,1.10
2018-01-19T06:24:55.591Z,1.17
2018-01-19T06:25:57.588Z,1.00
2018-01-19T06:26:58.835Z,1.70
2018-01-19T06:28:00.109Z,1.53
2018-01-19T06:29:02.117Z,1.70
2018-01-19T06:30:03.411Z,1.60
2018-01-19T06:31:05.400Z,1.60
2018-01-19T06:32:06.635Z,3.07
2018-01-19T06:33:07.915Z,2.40
2018-01-19T06:34:09.167Z,1.80
2018-01-19T06:35:11.161Z,2.07
2018-01-19T06:36:12.401Z,3.77
2018-01-19T06:37:13.649Z,4.17
2018-01-19T06:38:14.913Z,4.23
2018-01-19T06:39:16.164Z,3.33
2018-01-19T06:40:18.171Z,2.20
2018-01-19T06:41:19.493Z,2.73
2018-01-19T06:42:20.749Z,2.47
2018-01-19T06:43:22.026Z,2.37
2018-01-19T06:44:24.025Z,2.10
2018-01-19T06:45:25.291Z,2.30
2018-01-19T06:46:26.546Z,1.90
2018-01-19T06:47:28.523Z,1.57
2018-01-19T06:48:29.803Z,2.13
2018-01-19T06:49:31.077Z,2.20
2018-01-19T06:50:33.069Z,2.80
2018-01-19T06:51:34.329Z,1.90
2018-01-19T06:52:35.579Z,1.70
2018-01-19T06:53:37.599Z,1.60
2018-01-19T06:54:38.881Z,1.37
2018-01-19T06:55:40.884Z,1.90
2018-01-19T06:56:42.193Z,1.60
2018-01-19T06:57:43.461Z,1.37
2018-01-19T06:58:44.741Z,1.53
2018-01-19T06:59:46.771Z,2.20
2018-01-19T07:00:48.042Z,1.90
2018-01-19T07:01:49.291Z,1.33
2018-01-19T07:02:50.565Z,1.67
2018-01-19T07:03:51.841Z,1.50
2018-01-19T07:04:53.849Z,1.67
2018-01-19T07:05:55.118Z,1.50
2018-01-19T07:06:57.144Z,1.40
2018-01-19T07:07:58.421Z,1.40
2018-01-19T07:09:00.431Z,1.50
2018-01-19T07:10:01.679Z,1.70
2018-01-19T07:11:02.963Z,1.70
2018-01-19T07:12:04.223Z,1.70
2018-01-19T07:13:05.465Z,1.57
2018-01-19T07:14:06.753Z,2.37
2018-01-19T07:15:08.738Z,1.87
2018-01-19T07:16:09.981Z,1.80
2018-01-19T07:17:11.267Z,1.17
2018-01-19T07:18:13.264Z,1.83
2018-01-19T07:19:14.557Z,1.43
2018-01-19T07:20:16.555Z,1.20
2018-01-19T07:21:17.805Z,1.50
2018-01-19T07:22:19.076Z,1.10
2018-01-19T07:23:21.080Z,2.57
2018-01-19T07:24:22.612Z,1.53
2018-01-19T07:25:23.847Z,1.93
2018-01-19T07:26:25.108Z,1.20
2018-01-19T07:27:26.372Z,0.90
2018-01-19T07:28:27.613Z,1.00
2018-01-19T07:29:29.813Z,1.00
2018-01-19T07:30:31.054Z,1.20
2018-01-19T07:31:32.301Z,1.40
2018-01-19T07:32:33.563Z,1.13
2018-01-19T07:33:34.847Z,0.97
2018-01-19T07:34:36.415Z,0.90
2018-01-19T07:35:37.674Z,1.00
2018-01-19T07:36:38.937Z,0.70
2018-01-19T07:37:40.914Z,1.10
2018-01-19T07:38:42.153Z,1.20
2018-01-19T07:39:43.464Z,1.07
2018-01-19T07:40:45.490Z,1.10
2018-01-19T07:41:46.813Z,1.20
2018-01-19T07:42:48.105Z,1.73
2018-01-19T07:43:49.379Z,0.90
2018-01-19T07:44:50.700Z,0.93
2018-01-19T07:45:52.009Z,0.80
2018-01-19T07:46:53.275Z,0.90
2018-01-19T07:47:54.555Z,0.80
2018-01-19T07:48:56.640Z,0.93
2018-01-19T07:49:57.957Z,1.20
2018-01-19T07:50:59.996Z,1.23
2018-01-19T07:52:01.983Z,1.20
2018-01-19T07:53:03.242Z,1.00
2018-01-19T07:54:05.266Z,1.10
2018-01-19T07:55:06.549Z,1.17
2018-01-19T07:56:07.803Z,0.80
2018-01-19T07:57:09.053Z,1.00
2018-01-19T07:58:11.065Z,1.30
2018-01-19T07:59:12.347Z,0.80
2018-01-19T08:00:14.683Z,0.80
2018-01-19T08:01:15.924Z,0.80
2018-01-19T08:02:17.202Z,1.20
2018-01-19T08:03:18.487Z,1.00
2018-01-19T08:04:19.751Z,0.80
2018-01-19T08:05:21.763Z,1.00
2018-01-19T08:06:23.005Z,0.93
2018-01-19T08:07:24.271Z,0.80
2018-01-19T08:08:26.273Z,1.00
2018-01-19T08:09:27.513Z,0.80
2018-01-19T08:10:28.779Z,1.10
2018-01-19T08:11:30.026Z,0.97
2018-01-19T08:12:32.040Z,0.80
2018-01-19T08:13:33.301Z,0.73
2018-01-19T08:14:34.534Z,1.53
2018-01-19T08:15:35.803Z,1.50
2018-01-19T08:16:37.037Z,1.67
2018-01-19T08:17:38.293Z,0.80
2018-01-19T08:18:39.540Z,1.00
2018-01-19T08:19:40.813Z,1.47
2018-01-19T08:20:42.149Z,0.83
2018-01-19T08:21:43.483Z,1.23
2018-01-19T08:22:44.745Z,1.30
2018-01-19T08:23:46.737Z,1.27
2018-01-19T08:24:47.978Z,0.80
2018-01-19T08:25:49.502Z,0.90
2018-01-19T08:26:50.752Z,0.80
2018-01-19T08:27:52.027Z,0.83
2018-01-19T08:28:53.289Z,0.60
2018-01-19T08:29:54.569Z,0.90
2018-01-19T08:30:55.839Z,1.70
2018-01-19T08:31:57.078Z,0.93
2018-01-19T08:32:59.090Z,0.90
2018-01-19T08:34:00.344Z,1.60
2018-01-19T08:35:01.605Z,0.90
2018-01-19T08:36:03.917Z,1.23
2018-01-19T08:37:05.915Z,1.17
2018-01-19T08:38:07.923Z,0.87
2018-01-19T08:39:09.169Z,1.10
2018-01-19T08:40:10.420Z,0.80
2018-01-19T08:41:11.718Z,1.40
2018-01-19T08:42:13.045Z,0.90
2018-01-19T08:43:14.305Z,1.73
2018-01-19T08:44:15.601Z,0.87
2018-01-19T08:45:16.859Z,1.60
2018-01-19T08:46:18.411Z,2.63
2018-01-19T08:47:19.673Z,1.43
2018-01-19T08:48:20.915Z,1.63
2018-01-19T08:49:22.174Z,1.47
2018-01-19T08:50:24.172Z,2.17
2018-01-19T08:51:25.450Z,1.17
2018-01-19T08:52:26.719Z,2.10
2018-01-19T08:53:27.993Z,1.50
2018-01-19T08:54:29.247Z,1.60
2018-01-19T08:55:30.499Z,1.10
2018-01-19T08:56:32.561Z,1.50
2018-01-19T08:57:34.582Z,2.00
2018-01-19T08:58:35.838Z,1.77
2018-01-19T08:59:37.073Z,5.63
2018-01-19T09:00:38.343Z,3.80
2018-01-19T09:01:39.591Z,1.70
2018-01-19T09:02:40.850Z,2.07
2018-01-19T09:03:42.127Z,1.50
2018-01-19T09:04:44.119Z,1.77
2018-01-19T09:05:45.418Z,2.20
2018-01-19T09:06:47.777Z,2.03
2018-01-19T09:07:49.781Z,1.40
2018-01-19T09:08:51.789Z,0.97
2018-01-19T09:09:53.784Z,1.00
2018-01-19T09:10:55.031Z,1.13
2018-01-19T09:11:56.298Z,2.10
2018-01-19T09:12:58.310Z,1.83
2018-01-19T09:13:59.557Z,1.53
2018-01-19T09:15:00.829Z,1.30
2018-01-19T09:16:02.845Z,1.17
2018-01-19T09:17:04.112Z,1.00
2018-01-19T09:18:06.141Z,0.90
2018-01-19T09:19:07.385Z,0.97
2018-01-19T09:20:08.638Z,0.90
2018-01-19T09:21:10.643Z,1.13
2018-01-19T09:22:11.898Z,1.20
2018-01-19T09:23:13.137Z,1.63
2018-01-19T09:24:14.413Z,1.30
2018-01-19T09:25:15.674Z,1.57
2018-01-19T09:26:16.941Z,1.67
2018-01-19T09:27:18.247Z,1.90
2018-01-19T09:28:19.513Z,1.63
2018-01-19T09:29:20.772Z,1.60
2018-01-19T09:30:22.768Z,2.00
2018-01-19T09:31:24.023Z,2.20
2018-01-19T09:32:25.563Z,2.47
2018-01-19T09:33:26.804Z,1.73
2018-01-19T09:34:28.048Z,1.83
2018-01-19T09:35:29.312Z,1.30
2018-01-19T09:36:31.306Z,1.50
2018-01-19T09:37:32.833Z,1.73
2018-01-19T09:38:34.078Z,1.73
2018-01-19T09:39:35.329Z,1.53
2018-01-19T09:40:36.571Z,2.23
2018-01-19T09:41:37.808Z,1.90
2018-01-19T09:42:39.087Z,2.00
2018-01-19T09:43:41.120Z,2.03
2018-01-19T09:44:42.353Z,1.57
2018-01-19T09:45:43.620Z,1.77
2018-01-19T09:46:45.651Z,4.43
2018-01-19T09:47:47.651Z,4.63
2018-01-19T09:48:48.912Z,2.17
2018-01-19T09:49:50.165Z,1.70
2018-01-19T09:50:51.458Z,1.30
2018-01-19T09:51:52.690Z,1.60
2018-01-19T09:52:53.961Z,2.47
2018-01-19T09:53:55.225Z,1.90
2018-01-19T09:54:57.225Z,3.40
2018-01-19T09:55:58.482Z,3.73
2018-01-19T09:56:59.748Z,2.07
2018-01-19T09:58:01.755Z,1.70
2018-01-19T09:59:03.046Z,1.57
2018-01-19T10:00:05.059Z,1.70
2018-01-19T10:01:06.339Z,2.73
2018-01-19T10:02:08.328Z,1.33
2018-01-19T10:03:09.614Z,2.43
2018-01-19T10:04:11.598Z,1.77
2018-01-19T10:05:12.844Z,1.23
2018-01-19T10:06:14.106Z,1.57
2018-01-19T10:07:15.347Z,1.70
2018-01-19T10:08:16.609Z,1.83
2018-01-19T10:09:18.600Z,1.83
2018-01-19T10:10:19.854Z,2.13
2018-01-19T10:11:21.114Z,1.93
2018-01-19T10:12:22.399Z,2.60
2018-01-19T10:13:23.943Z,1.97
2018-01-19T10:14:25.203Z,1.50
2018-01-19T10:15:26.444Z,1.60
2018-01-19T10:16:27.708Z,2.17
2018-01-19T10:17:28.964Z,2.03
2018-01-19T10:18:31.304Z,3.27
2018-01-19T10:19:32.589Z,2.07
2018-01-19T10:20:33.832Z,1.20
2018-01-19T10:21:35.084Z,1.97
2018-01-19T10:22:37.068Z,2.73
2018-01-19T10:23:38.332Z,1.80
2018-01-19T10:24:39.574Z,1.90
2018-01-19T10:25:40.824Z,1.63
2018-01-19T10:26:42.074Z,1.40
2018-01-19T10:27:43.349Z,2.90
2018-01-19T10:28:45.349Z,1.80
2018-01-19T10:29:46.595Z,3.37
2018-01-19T10:30:47.854Z,2.90
2018-01-19T10:31:49.107Z,1.10
2018-01-19T10:32:51.079Z,1.30
2018-01-19T10:33:52.625Z,1.30
2018-01-19T10:34:53.869Z,2.30
2018-01-19T10:35:55.110Z,1.30
2018-01-19T10:36:56.354Z,1.80
2018-01-19T10:37:57.594Z,2.80
2018-01-19T10:38:58.872Z,1.60
2018-01-19T10:40:00.134Z,1.30
2018-01-19T10:41:01.382Z,1.50
2018-01-19T10:42:02.632Z,1.50
2018-01-19T10:43:03.958Z,1.13
2018-01-19T10:44:05.223Z,1.23
2018-01-19T10:45:06.492Z,1.20
2018-01-19T10:46:08.518Z,3.20
2018-01-19T10:47:09.782Z,1.70
2018-01-19T10:48:11.804Z,1.30
2018-01-19T10:49:13.342Z,1.23
2018-01-19T10:50:15.350Z,1.40
2018-01-19T10:51:16.591Z,1.07
2018-01-19T10:52:17.844Z,2.77
2018-01-19T10:53:19.096Z,1.20
2018-01-19T10:54:20.350Z,2.60
2018-01-19T10:55:21.621Z,0.93
2018-01-19T10:56:22.878Z,1.00
2018-01-19T10:57:24.120Z,1.30
2018-01-19T10:58:25.400Z,1.30
2018-01-19T10:59:26.647Z,1.60
2018-01-19T11:00:28.667Z,2.30
2018-01-19T11:01:29.928Z,1.13
2018-01-19T11:02:31.192Z,1.40
2018-01-19T11:03:32.440Z,1.80
2018-01-19T11:04:33.985Z,1.80
2018-01-19T11:05:35.220Z,2.03
2018-01-19T11:06:36.460Z,1.07
2018-01-19T11:07:37.698Z,2.17
2018-01-19T11:08:38.943Z,2.17
2018-01-19T11:09:40.472Z,1.10
2018-01-19T11:10:41.724Z,1.37
2018-01-19T11:11:42.964Z,2.93
2018-01-19T11:12:44.252Z,1.20
2018-01-19T11:13:46.280Z,1.77
2018-01-19T11:14:47.800Z,1.10
2018-01-19T11:15:49.056Z,1.77
2018-01-19T11:16:50.318Z,1.57
2018-01-19T11:17:52.308Z,1.57
2018-01-19T11:18:53.560Z,3.07
2018-01-19T11:19:54.860Z,1.50
2018-01-19T11:20:56.167Z,1.47
2018-01-19T11:21:58.171Z,2.33
2018-01-19T11:22:59.447Z,1.97
2018-01-19T11:24:00.702Z,2.13
2018-01-19T11:25:03.006Z,1.60
2018-01-19T11:26:04.272Z,2.67
2018-01-19T11:27:05.582Z,2.03
2018-01-19T11:28:06.805Z,1.40
2018-01-19T11:29:08.054Z,1.43
2018-01-19T11:30:09.332Z,1.57
2018-01-19T11:31:11.394Z,1.67
2018-01-19T11:32:13.484Z,2.10
2018-01-19T11:33:14.951Z,1.97
2018-01-19T11:34:16.274Z,1.43
2018-01-19T11:35:17.624Z,1.60
2018-01-19T11:36:18.926Z,1.30
2018-01-19T11:37:20.271Z,1.57
2018-01-19T11:38:21.528Z,1.10
2018-01-19T11:39:22.775Z,1.30
2018-01-19T11:40:24.300Z,0.97
2018-01-19T11:41:25.560Z,1.50
2018-01-19T11:42:26.820Z,1.63
2018-01-19T11:43:28.875Z,1.27
2018-01-19T11:44:30.864Z,1.30
2018-01-19T11:45:32.113Z,1.53
2018-01-19T11:46:33.358Z,1.10
2018-01-19T11:47:34.616Z,1.87
2018-01-19T11:48:35.858Z,1.33
2018-01-19T11:49:37.852Z,1.20
2018-01-19T11:50:39.139Z,1.53
2018-01-19T11:51:40.404Z,1.40
2018-01-19T11:52:41.659Z,1.20
2018-01-19T11:53:42.916Z,1.10
2018-01-19T11:54:44.166Z,2.43
2018-01-19T11:55:45.452Z,1.73
2018-01-19T11:56:46.692Z,1.77
2018-01-19T11:57:47.968Z,1.87
2018-01-19T11:58:49.243Z,1.63
2018-01-19T11:59:51.244Z,1.20
2018-01-19T12:00:52.805Z,1.50
2018-01-19T12:01:54.087Z,1.17
2018-01-19T12:02:55.340Z,1.33
2018-01-19T12:03:56.581Z,1.70
2018-01-19T12:04:57.842Z,1.43
2018-01-19T12:05:59.112Z,1.00
2018-01-19T12:07:01.112Z,1.50
2018-01-19T12:08:02.380Z,1.63
2018-01-19T12:09:03.664Z,1.10
2018-01-19T12:10:04.906Z,1.20
2018-01-19T12:11:06.464Z,1.00
2018-01-19T12:12:07.707Z,1.57
2018-01-19T12:13:08.974Z,0.90
2018-01-19T12:14:10.968Z,1.10
2018-01-19T12:15:12.251Z,0.80
2018-01-19T12:16:13.780Z,1.00
2018-01-19T12:17:15.028Z,0.90
2018-01-19T12:18:16.302Z,1.83
2018-01-19T12:19:17.544Z,3.23
2018-01-19T12:20:18.830Z,2.33
2018-01-19T12:21:20.308Z,1.03
2018-01-19T12:22:21.551Z,0.77
2018-01-19T12:23:22.788Z,1.63
2018-01-19T12:24:24.044Z,1.20
2018-01-19T12:25:25.312Z,0.83
2018-01-19T12:27:36.540Z,1.00
2018-01-19T12:28:37.798Z,0.90
2018-01-19T12:29:39.068Z,2.20
2018-01-19T12:30:40.308Z,1.47
2018-01-19T12:31:42.292Z,1.10
2018-01-19T12:32:43.898Z,1.27
2018-01-19T12:33:45.138Z,0.93
2018-01-19T12:34:46.386Z,1.57
2018-01-19T12:35:48.372Z,1.30
2018-01-19T12:36:49.608Z,1.27
2018-01-19T12:37:51.216Z,2.57
2018-01-19T12:38:53.195Z,1.13
2018-01-19T12:39:54.427Z,1.27
2018-01-19T12:40:55.676Z,2.20
2018-01-19T12:41:56.922Z,1.50
2018-01-19T12:42:59.232Z,2.60
2018-01-19T12:44:01.276Z,2.10
2018-01-19T12:45:02.541Z,1.07
2018-01-19T12:46:03.787Z,2.20
2018-01-19T12:47:05.060Z,1.47
2018-01-19T12:48:06.604Z,1.80
2018-01-19T12:49:07.848Z,1.53
2018-01-19T12:50:09.106Z,1.27
2018-01-19T12:51:11.084Z,1.17
2018-01-19T12:52:12.318Z,1.33
2018-01-19T12:53:20.721Z,1.97
2018-01-19T12:54:21.978Z,3.43
2018-01-19T12:55:23.220Z,2.03
2018-01-19T12:56:24.480Z,3.47
2018-01-19T12:57:25.720Z,1.77
2018-01-19T12:58:27.272Z,1.20
2018-01-19T12:59:29.248Z,2.13
2018-01-19T13:00:30.518Z,2.10
2018-01-19T13:01:31.768Z,1.00
2018-01-19T13:02:33.019Z,1.43
2018-01-19T13:03:34.325Z,1.87
2018-01-19T13:04:50.466Z,1.97
2018-01-19T13:05:52.453Z,2.20
2018-01-19T13:06:53.728Z,1.93
2018-01-19T13:07:54.969Z,1.20
2018-01-19T13:08:57.032Z,2.40
2018-01-19T13:09:58.304Z,2.73
2018-01-19T13:10:59.538Z,1.83
2018-01-19T13:12:00.782Z,1.90
2018-01-19T13:13:02.024Z,2.90
2018-01-19T13:14:03.330Z,1.47
2018-01-19T13:15:05.116Z,1.93
2018-01-19T13:16:08.246Z,3.37
2018-01-19T13:17:10.236Z,2.13
2018-01-19T13:18:12.634Z,2.77
2018-01-19T13:19:14.020Z,1.70
2018-01-19T13:20:15.310Z,3.13
2018-01-19T13:21:28.044Z,2.73
2018-01-19T13:36:55.301Z,1.27
2018-01-19T13:37:56.806Z,1.37
2018-01-19T13:38:59.100Z,1.57
2018-01-19T13:40:00.641Z,1.73
2018-01-19T13:41:02.516Z,1.50
2018-01-19T13:42:04.000Z,1.73
2018-01-19T13:43:06.394Z,1.90
2018-01-19T13:44:07.950Z,0.97
2018-01-19T13:45:09.596Z,1.10
2018-01-19T13:46:11.132Z,2.97
2018-01-19T13:47:12.572Z,2.73
2018-01-19T13:48:13.944Z,1.37
2018-01-19T13:49:16.470Z,1.40
2018-01-19T13:50:17.980Z,3.37
2018-01-19T13:51:19.492Z,1.70
2018-01-19T13:52:21.062Z,1.30
2018-01-19T13:53:22.632Z,1.33
2018-01-19T13:54:24.166Z,1.63
2018-01-19T13:55:26.146Z,0.90
2018-01-19T13:56:27.653Z,1.13